createdAt,value
2023-02-08T00:03:02.229Z,-4.36
2023-02-08T00:07:04.306Z,-4.26
2023-02-08T00:11:06.929Z,-4.76
2023-02-08T00:15:08.906Z,-4.49
2023-02-08T00:19:10.478Z,-5.15
2023-02-08T00:23:13.007Z,-5.19
2023-02-08T00:27:15.786Z,-4.72
2023-02-08T00:31:17.301Z,-4.88
2023-02-08T00:35:18.903Z,-4.80
2023-02-08T00:39:21.185Z,-4.63
2023-02-08T00:43:22.665Z,-4.87
2023-02-08T00:47:24.799Z,-4.84
2023-02-08T00:51:26.239Z,-4.93
2023-02-08T00:55:27.751Z,-4.78
2023-02-08T00:59:29.276Z,-4.79
2023-02-08T01:03:33.878Z,-4.85
2023-02-08T01:07:38.685Z,-5.16
2023-02-08T01:11:40.135Z,-4.89
2023-02-08T01:15:41.619Z,-5.34
2023-02-08T01:19:43.074Z,-5.42
2023-02-08T01:23:45.673Z,-5.17
2023-02-08T01:27:47.823Z,-5.31
2023-02-08T01:31:49.365Z,-5.36
2023-02-08T01:35:53.962Z,-5.09
2023-02-08T01:39:55.494Z,-5.53
2023-02-08T01:43:59.839Z,-5.80
2023-02-08T01:48:04.720Z,-5.78
2023-02-08T01:52:16.987Z,-5.86
2023-02-08T01:56:23.400Z,-5.94
2023-02-08T02:00:25.048Z,-5.72
2023-02-08T02:04:27.450Z,-5.62
2023-02-08T02:08:30.569Z,-5.63
2023-02-08T02:12:33.840Z,-5.53
2023-02-08T02:16:36.143Z,-5.56
2023-02-08T02:20:43.675Z,-5.41
2023-02-08T02:25:23.689Z,-5.83
2023-02-08T02:29:31.355Z,-5.98
2023-02-08T02:33:58.477Z,-5.86
2023-02-08T02:38:21.817Z,-5.81
2023-02-08T02:43:01.191Z,-5.68
2023-02-08T02:47:15.653Z,-5.58
2023-02-08T02:51:27.213Z,-5.99
2023-02-08T02:55:32.345Z,-5.85
2023-02-08T02:59:35.307Z,-5.86
2023-02-08T03:03:36.874Z,-5.68
2023-02-08T03:07:41.117Z,-5.62
2023-02-08T03:11:54.352Z,-5.47
2023-02-08T03:15:58.586Z,-5.40
2023-02-08T03:20:08.528Z,-5.89
2023-02-08T03:24:26.684Z,-5.78
2023-02-08T03:28:49.220Z,-5.71
2023-02-08T03:32:56.945Z,-5.99
2023-02-08T03:37:08.192Z,-5.79
2023-02-08T03:41:14.238Z,-5.82
2023-02-08T03:45:21.808Z,-5.80
2023-02-08T03:49:29.622Z,-5.81
2023-02-08T03:53:38.177Z,-5.64
2023-02-08T03:57:54.748Z,-5.44
2023-02-08T04:02:01.946Z,-5.91
2023-02-08T04:06:03.732Z,-5.88
2023-02-08T04:10:05.517Z,-5.79
2023-02-08T04:14:06.987Z,-5.70
2023-02-08T04:18:08.520Z,-5.59
2023-02-08T04:22:09.972Z,-5.71
2023-02-08T04:26:11.465Z,-5.68
2023-02-08T04:30:13.602Z,-5.71
2023-02-08T04:34:15.449Z,-5.71
2023-02-08T04:38:16.881Z,-5.60
2023-02-08T04:42:18.735Z,-5.51
2023-02-08T04:46:20.229Z,-5.72
2023-02-08T04:50:21.784Z,-5.76
2023-02-08T04:54:23.311Z,-5.60
2023-02-08T04:58:24.849Z,-5.99
2023-02-08T05:02:26.264Z,-6.12
2023-02-08T05:06:27.711Z,-6.17
2023-02-08T05:10:29.196Z,-6.08
2023-02-08T05:14:30.759Z,-6.31
2023-02-08T05:18:32.205Z,-6.05
2023-02-08T05:22:33.818Z,-6.02
2023-02-08T05:26:35.235Z,-5.95
2023-02-08T05:30:38.546Z,-5.75
2023-02-08T05:34:40.297Z,-5.82
2023-02-08T05:38:41.711Z,-5.88
2023-02-08T05:42:44.444Z,-5.65
2023-02-08T05:46:45.956Z,-5.58
2023-02-08T05:50:47.478Z,-5.46
2023-02-08T05:54:48.889Z,-5.38
2023-02-08T05:58:50.285Z,-5.48
2023-02-08T06:02:51.998Z,-5.42
2023-02-08T06:06:53.523Z,-5.42
2023-02-08T06:10:54.982Z,-5.37
2023-02-08T06:14:56.475Z,-5.36
2023-02-08T06:18:58.305Z,-5.42
2023-02-08T06:22:59.786Z,-5.30
2023-02-08T06:27:01.227Z,-5.29
2023-02-08T06:31:02.701Z,-5.18
2023-02-08T06:35:04.350Z,-5.15
2023-02-08T06:39:05.968Z,-5.23
2023-02-08T06:43:07.558Z,-5.40
2023-02-08T06:47:08.975Z,-5.26
2023-02-08T06:51:10.432Z,-5.38
2023-02-08T06:55:11.908Z,-5.33
2023-02-08T06:59:13.485Z,-5.24
2023-02-08T07:03:17.387Z,-5.23
2023-02-08T07:07:19.419Z,-5.28
2023-02-08T07:11:21.964Z,-5.13
2023-02-08T07:15:23.403Z,-5.03
2023-02-08T07:19:24.881Z,-5.14
2023-02-08T07:23:26.363Z,-4.96
2023-02-08T07:27:27.976Z,-4.88
2023-02-08T07:31:29.500Z,-4.82
2023-02-08T07:35:31.029Z,-4.77
2023-02-08T07:39:32.706Z,-4.60
2023-02-08T07:43:35.890Z,-4.60
2023-02-08T07:47:37.385Z,-4.51
2023-02-08T07:51:38.848Z,-4.45
2023-02-08T07:55:40.278Z,-4.21
2023-02-08T07:59:41.740Z,-3.99
2023-02-08T08:03:43.231Z,-3.94
2023-02-08T08:07:44.729Z,-3.70
2023-02-08T08:11:46.509Z,-3.61
2023-02-08T08:15:47.931Z,-3.44
2023-02-08T08:19:49.386Z,-3.29
2023-02-08T08:23:50.882Z,-3.01
2023-02-08T08:27:52.911Z,-2.84
2023-02-08T08:31:54.406Z,-2.84
2023-02-08T08:35:57.095Z,-2.56
2023-02-08T08:39:58.633Z,-2.60
2023-02-08T08:44:00.105Z,-2.38
2023-02-08T08:48:03.312Z,-2.44
2023-02-08T08:52:07.737Z,-1.99
2023-02-08T08:56:09.350Z,-2.23
2023-02-08T09:00:11.675Z,-2.03
2023-02-08T09:04:13.214Z,-1.84
2023-02-08T09:08:14.677Z,-1.92
2023-02-08T09:12:16.170Z,-2.09
2023-02-08T09:16:18.463Z,-1.55
2023-02-08T09:20:20.062Z,-1.34
2023-02-08T09:24:21.616Z,-1.13
2023-02-08T09:28:23.131Z,-0.94
2023-02-08T09:32:24.706Z,-0.75
2023-02-08T09:36:31.600Z,-0.39
2023-02-08T09:40:48.784Z,-0.51
2023-02-08T09:45:07.231Z,-0.16
2023-02-08T09:49:19.787Z,-0.09
2023-02-08T09:53:35.131Z,-0.02
2023-02-08T09:57:38.456Z,-0.30
2023-02-08T10:01:39.959Z,0.09
2023-02-08T10:05:41.642Z,0.42
2023-02-08T10:09:43.202Z,0.20
2023-02-08T10:13:56.904Z,0.32
2023-02-08T10:18:04.450Z,0.39
2023-02-08T10:22:47.117Z,0.75
2023-02-08T10:26:54.178Z,0.77
2023-02-08T10:31:30.506Z,0.67
2023-02-08T10:35:38.984Z,0.94
2023-02-08T10:39:40.863Z,1.43
2023-02-08T10:44:08.374Z,1.12
2023-02-08T10:48:22.885Z,1.38
2023-02-08T10:52:24.414Z,1.54
2023-02-08T10:56:49.793Z,1.70
2023-02-08T11:00:52.070Z,1.38
2023-02-08T11:05:07.696Z,1.65
2023-02-08T11:09:35.601Z,1.55
2023-02-08T11:13:46.116Z,2.23
2023-02-08T11:17:47.692Z,1.74
2023-02-08T11:21:51.937Z,1.45
2023-02-08T11:25:54.830Z,1.78
2023-02-08T11:30:14.573Z,1.87
2023-02-08T11:34:25.128Z,1.97
2023-02-08T11:38:28.190Z,2.59
2023-02-08T11:42:35.198Z,2.85
2023-02-08T11:46:37.432Z,3.02
2023-02-08T11:50:39.444Z,3.28
2023-02-08T11:54:42.432Z,2.72
2023-02-08T11:59:19.288Z,3.26
2023-02-08T12:03:37.590Z,3.65
2023-02-08T12:07:47.640Z,3.68
2023-02-08T12:11:50.620Z,3.62
2023-02-08T12:16:16.831Z,3.71
2023-02-08T12:20:32.155Z,3.36
2023-02-08T12:24:51.016Z,3.89
2023-02-08T12:29:06.308Z,3.81
2023-02-08T12:33:23.002Z,4.22
2023-02-08T12:37:43.158Z,4.66
2023-02-08T12:42:16.290Z,5.03
2023-02-08T12:46:46.418Z,4.92
2023-02-08T12:50:55.963Z,5.28
2023-02-08T12:55:02.967Z,5.11
2023-02-08T12:59:13.521Z,4.88
2023-02-08T13:03:56.880Z,4.74
2023-02-08T13:08:36.875Z,5.03
2023-02-08T13:12:46.031Z,5.24
2023-02-08T13:16:52.212Z,5.64
2023-02-08T13:20:59.304Z,5.73
2023-02-08T13:25:07.662Z,5.20
2023-02-08T13:29:18.312Z,5.65
2023-02-08T13:33:46.602Z,6.11
2023-02-08T13:38:31.833Z,5.79
2023-02-08T13:42:48.584Z,5.78
2023-02-08T13:46:51.149Z,5.92
2023-02-08T13:50:57.038Z,6.46
2023-02-08T13:55:32.002Z,6.14
2023-02-08T13:59:35.305Z,6.32
2023-02-08T14:03:36.951Z,6.41
2023-02-08T14:07:38.473Z,4.98
2023-02-08T14:12:06.858Z,5.66
2023-02-08T14:16:38.580Z,6.11
2023-02-08T14:20:41.168Z,5.97
2023-02-08T14:25:15.938Z,6.15
2023-02-08T14:29:29.968Z,5.65
2023-02-08T14:33:50.070Z,5.76
2023-02-08T14:38:20.340Z,6.06
2023-02-08T14:43:00.741Z,6.00
2023-02-08T14:47:02.411Z,6.35
2023-02-08T14:51:09.819Z,5.00
2023-02-08T14:55:21.666Z,5.75
2023-02-08T14:59:26.992Z,5.82
2023-02-08T15:03:31.664Z,5.05
2023-02-08T15:07:49.600Z,5.21
2023-02-08T15:12:24.928Z,4.71
2023-02-08T15:16:40.153Z,4.30
2023-02-08T15:20:43.754Z,4.48
2023-02-08T15:24:56.640Z,4.42
2023-02-08T15:29:00.851Z,4.37
2023-02-08T15:33:07.540Z,3.88
2023-02-08T15:37:16.495Z,3.15
2023-02-08T15:41:30.121Z,2.92
2023-02-08T15:45:31.664Z,2.20
2023-02-08T15:49:39.118Z,2.11
2023-02-08T15:53:43.560Z,1.90
2023-02-08T15:57:54.363Z,1.70
2023-02-08T16:01:58.315Z,1.63
2023-02-08T16:06:03.330Z,1.34
2023-02-08T16:10:08.183Z,1.34
2023-02-08T16:14:15.061Z,1.12
2023-02-08T16:18:39.682Z,1.10
2023-02-08T16:22:41.152Z,0.97
2023-02-08T16:26:57.967Z,0.46
2023-02-08T16:31:02.626Z,0.50
2023-02-08T16:35:19.645Z,0.62
2023-02-08T16:39:39.565Z,0.67
2023-02-08T16:43:44.002Z,0.46
2023-02-08T16:47:52.096Z,0.45
2023-02-08T16:52:00.249Z,0.35
2023-02-08T16:56:01.943Z,0.27
2023-02-08T17:00:18.188Z,0.14
2023-02-08T17:04:19.756Z,0.09
2023-02-08T17:08:22.252Z,0.16
2023-02-08T17:12:24.389Z,0.09
2023-02-08T17:16:28.620Z,0.13
2023-02-08T17:20:33.766Z,0.04
2023-02-08T17:24:36.774Z,-0.12
2023-02-08T17:28:39.534Z,-0.11
2023-02-08T17:32:40.977Z,-0.22
2023-02-08T17:36:42.841Z,-0.06
2023-02-08T17:40:44.875Z,-0.32
2023-02-08T17:44:46.436Z,-0.36
2023-02-08T17:48:48.429Z,-0.42
2023-02-08T17:52:50.046Z,-0.76
2023-02-08T17:56:56.476Z,-0.56
2023-02-08T18:00:58.008Z,-0.56
2023-02-08T18:04:59.632Z,-0.47
2023-02-08T18:09:01.789Z,-0.43
2023-02-08T18:13:03.251Z,-0.52
2023-02-08T18:17:05.377Z,-0.83
2023-02-08T18:21:15.536Z,-0.80
2023-02-08T18:25:17.580Z,-0.72
2023-02-08T18:29:19.298Z,-0.73
2023-02-08T18:33:20.790Z,-0.73
2023-02-08T18:37:23.082Z,-0.76
2023-02-08T18:41:26.920Z,-0.74
2023-02-08T18:45:28.464Z,-0.61
2023-02-08T18:49:29.954Z,-0.73
2023-02-08T18:53:34.218Z,-0.88
2023-02-08T18:57:38.764Z,-0.84
2023-02-08T19:01:40.380Z,-0.82
2023-02-08T19:05:42.249Z,-1.08
2023-02-08T19:09:44.116Z,-1.05
2023-02-08T19:13:46.845Z,-1.24
2023-02-08T19:17:48.283Z,-1.55
2023-02-08T19:21:49.773Z,-1.55
2023-02-08T19:25:51.298Z,-1.49
2023-02-08T19:29:56.132Z,-1.59
2023-02-08T19:33:59.889Z,-1.54
2023-02-08T19:38:01.450Z,-1.69
2023-02-08T19:42:03.183Z,-1.72
2023-02-08T19:46:13.718Z,-1.57
2023-02-08T19:50:15.210Z,-1.45
2023-02-08T19:54:18.445Z,-1.72
2023-02-08T19:58:19.891Z,-1.72
2023-02-08T20:02:24.330Z,-2.01
2023-02-08T20:06:29.475Z,-1.80
2023-02-08T20:10:30.908Z,-1.83
2023-02-08T20:14:33.769Z,-1.71
2023-02-08T20:18:35.262Z,-1.80
2023-02-08T20:22:36.728Z,-1.80
2023-02-08T20:26:43.586Z,-1.79
2023-02-08T20:30:45.079Z,-1.79
2023-02-08T20:34:58.439Z,-2.01
2023-02-08T20:39:00.810Z,-2.00
2023-02-08T20:43:02.264Z,-1.90
2023-02-08T20:47:03.919Z,-2.19
2023-02-08T20:51:12.929Z,-2.13
2023-02-08T20:55:14.627Z,-2.23
2023-02-08T20:59:16.540Z,-2.08
2023-02-08T21:03:18.053Z,-2.19
2023-02-08T21:07:19.665Z,-2.29
2023-02-08T21:11:23.806Z,-2.09
2023-02-08T21:15:25.306Z,-2.15
2023-02-08T21:19:28.997Z,-2.25
2023-02-08T21:23:30.534Z,-2.15
2023-02-08T21:27:32.070Z,-2.23
2023-02-08T21:31:36.335Z,-2.29
2023-02-08T21:35:38.388Z,-2.31
2023-02-08T21:39:39.844Z,-2.32
2023-02-08T21:43:41.856Z,-2.33
2023-02-08T21:47:43.272Z,-2.53
2023-02-08T21:52:03.870Z,-2.45
2023-02-08T21:56:08.964Z,-2.34
2023-02-08T22:00:11.351Z,-2.02
2023-02-08T22:04:12.829Z,-2.23
2023-02-08T22:08:14.345Z,-2.40
2023-02-08T22:12:18.360Z,-2.64
2023-02-08T22:16:20.048Z,-2.64
2023-02-08T22:20:21.781Z,-2.72
2023-02-08T22:24:23.232Z,-2.84
2023-02-08T22:28:24.720Z,-2.75
2023-02-08T22:32:26.299Z,-2.72
2023-02-08T22:36:27.793Z,-3.07
2023-02-08T22:40:29.385Z,-2.87
2023-02-08T22:44:30.876Z,-2.92
2023-02-08T22:48:32.728Z,-2.86
2023-02-08T22:52:34.565Z,-2.89
2023-02-08T22:56:36.076Z,-3.06
2023-02-08T23:00:37.660Z,-3.15
2023-02-08T23:04:39.232Z,-3.12
2023-02-08T23:08:40.744Z,-3.00
2023-02-08T23:12:42.240Z,-3.30
2023-02-08T23:16:44.018Z,-3.24
2023-02-08T23:20:45.957Z,-3.25
2023-02-08T23:24:47.648Z,-3.39
2023-02-08T23:28:54.034Z,-3.34
2023-02-08T23:32:55.635Z,-3.25
2023-02-08T23:36:57.064Z,-3.49
2023-02-08T23:41:03.132Z,-3.47
2023-02-08T23:45:05.430Z,-3.53
2023-02-08T23:49:06.882Z,-3.56
2023-02-08T23:53:08.324Z,-3.55
2023-02-08T23:57:09.859Z,-3.50
